createdAt,value
2023-02-19T00:01:40.865Z,9.96
2023-02-19T00:04:12.897Z,9.95
2023-02-19T00:06:40.266Z,9.97
2023-02-19T00:09:06.869Z,9.95
2023-02-19T00:11:34.906Z,9.95
2023-02-19T00:14:02.916Z,9.94
2023-02-19T00:16:36.159Z,9.95
2023-02-19T00:19:05.868Z,9.95
2023-02-19T00:21:33.079Z,9.92
2023-02-19T00:24:03.292Z,9.94
2023-02-19T00:26:30.594Z,9.94
2023-02-19T00:28:58.185Z,9.95
2023-02-19T00:31:32.144Z,9.93
2023-02-19T00:34:01.717Z,9.94
2023-02-19T00:36:29.570Z,9.94
2023-02-19T00:38:56.583Z,9.93
2023-02-19T00:41:24.775Z,9.94
2023-02-19T00:43:52.542Z,9.93
2023-02-19T00:46:23.139Z,9.94
2023-02-19T00:48:50.120Z,9.93
2023-02-19T00:51:16.620Z,9.92
2023-02-19T00:53:43.232Z,9.92
2023-02-19T00:56:10.250Z,9.93
2023-02-19T00:58:37.979Z,9.92
2023-02-19T01:01:06.407Z,9.92
2023-02-19T01:03:37.727Z,9.91
2023-02-19T01:06:05.976Z,9.92
2023-02-19T01:08:33.287Z,9.91
2023-02-19T01:11:01.740Z,9.90
2023-02-19T01:13:29.130Z,9.88
2023-02-19T01:16:17.620Z,9.89
2023-02-19T01:18:44.618Z,9.90
2023-02-19T01:21:17.227Z,9.88
2023-02-19T01:23:44.938Z,9.89
2023-02-19T01:26:20.550Z,9.89
2023-02-19T01:28:48.257Z,9.88
2023-02-19T01:31:20.980Z,9.86
2023-02-19T01:33:51.077Z,9.84
2023-02-19T01:36:18.956Z,9.85
2023-02-19T01:38:46.367Z,9.82
2023-02-19T01:41:19.858Z,9.82
2023-02-19T01:44:21.832Z,9.80
2023-02-19T01:46:48.514Z,9.79
2023-02-19T01:49:23.097Z,9.78
2023-02-19T01:51:59.047Z,9.77
2023-02-19T01:54:32.420Z,9.73
2023-02-19T01:57:04.013Z,9.72
2023-02-19T01:59:33.721Z,9.70
2023-02-19T02:02:01.315Z,9.72
2023-02-19T02:04:31.729Z,9.67
2023-02-19T02:07:02.075Z,9.67
2023-02-19T02:09:49.648Z,9.67
2023-02-19T02:12:16.209Z,9.67
2023-02-19T02:14:47.310Z,9.65
2023-02-19T02:17:26.518Z,9.63
2023-02-19T02:20:18.805Z,9.64
2023-02-19T02:22:59.807Z,9.62
2023-02-19T02:25:51.989Z,9.61
2023-02-19T02:28:52.281Z,9.60
2023-02-19T02:31:33.760Z,9.59
2023-02-19T02:34:17.419Z,9.59
2023-02-19T02:36:49.758Z,9.58
2023-02-19T02:39:21.991Z,9.56
2023-02-19T02:42:15.703Z,9.56
2023-02-19T02:45:02.730Z,9.54
2023-02-19T02:47:42.533Z,9.52
2023-02-19T02:50:17.849Z,9.53
2023-02-19T02:53:07.189Z,9.55
2023-02-19T02:55:41.418Z,9.56
2023-02-19T02:58:09.355Z,9.55
2023-02-19T03:00:57.928Z,9.54
2023-02-19T03:03:28.835Z,9.52
2023-02-19T03:06:04.476Z,9.50
2023-02-19T03:08:40.890Z,9.50
2023-02-19T03:11:29.279Z,9.48
2023-02-19T03:14:26.053Z,9.47
2023-02-19T03:17:17.422Z,9.47
2023-02-19T03:19:52.813Z,9.48
2023-02-19T03:22:27.037Z,9.45
2023-02-19T03:25:29.021Z,9.48
2023-02-19T03:27:59.574Z,9.47
2023-02-19T03:30:33.505Z,9.46
2023-02-19T03:33:28.427Z,9.46
2023-02-19T03:36:04.221Z,9.45
2023-02-19T03:38:49.754Z,9.45
2023-02-19T03:41:39.238Z,9.45
2023-02-19T03:44:34.358Z,9.45
2023-02-19T03:47:19.879Z,9.44
2023-02-19T03:49:56.494Z,9.43
2023-02-19T03:52:50.244Z,9.44
2023-02-19T03:55:26.342Z,9.44
2023-02-19T03:58:09.344Z,9.42
2023-02-19T04:00:42.958Z,9.41
2023-02-19T04:03:43.819Z,9.41
2023-02-19T04:06:17.469Z,9.40
2023-02-19T04:08:52.247Z,9.39
2023-02-19T04:11:22.897Z,9.39
2023-02-19T04:14:09.372Z,9.37
2023-02-19T04:16:41.482Z,9.36
2023-02-19T04:19:17.496Z,9.36
2023-02-19T04:21:46.603Z,9.35
2023-02-19T04:24:21.949Z,9.37
2023-02-19T04:26:49.000Z,9.36
2023-02-19T04:29:15.522Z,9.36
2023-02-19T04:31:42.138Z,9.35
2023-02-19T04:34:08.753Z,9.37
2023-02-19T04:36:35.280Z,9.35
2023-02-19T04:39:01.828Z,9.35
2023-02-19T04:41:28.330Z,9.35
2023-02-19T04:43:54.893Z,9.34
2023-02-19T04:46:21.424Z,9.32
2023-02-19T04:48:47.990Z,9.33
2023-02-19T04:51:14.520Z,9.31
2023-02-19T04:53:41.093Z,9.33
2023-02-19T04:56:10.531Z,9.32
2023-02-19T04:58:37.728Z,9.31
2023-02-19T05:01:05.128Z,9.30
2023-02-19T05:03:34.914Z,9.30
2023-02-19T05:06:06.445Z,9.30
2023-02-19T05:08:33.498Z,9.29
2023-02-19T05:11:02.261Z,9.26
2023-02-19T05:13:29.165Z,9.27
2023-02-19T05:16:09.565Z,9.27
2023-02-19T05:18:36.181Z,9.29
2023-02-19T05:21:03.087Z,9.27
2023-02-19T05:23:29.687Z,9.28
2023-02-19T05:25:56.261Z,9.24
2023-02-19T05:28:28.542Z,9.27
2023-02-19T05:30:56.859Z,9.27
2023-02-19T05:33:25.967Z,9.25
2023-02-19T05:35:55.059Z,9.24
2023-02-19T05:38:24.384Z,9.25
2023-02-19T05:40:51.307Z,9.24
2023-02-19T05:43:17.881Z,9.24
2023-02-19T05:45:44.466Z,9.24
2023-02-19T05:48:11.755Z,9.24
2023-02-19T05:50:39.905Z,9.21
2023-02-19T05:53:06.689Z,9.22
2023-02-19T05:55:36.832Z,9.20
2023-02-19T05:58:03.852Z,9.20
2023-02-19T06:00:32.455Z,9.18
2023-02-19T06:02:59.259Z,9.18
2023-02-19T06:05:25.884Z,9.17
2023-02-19T06:07:52.450Z,9.18
2023-02-19T06:10:19.274Z,9.17
2023-02-19T06:12:45.827Z,9.14
2023-02-19T06:15:12.455Z,9.14
2023-02-19T06:17:39.044Z,9.11
2023-02-19T06:20:05.943Z,9.09
2023-02-19T06:22:32.576Z,9.10
2023-02-19T06:24:59.076Z,9.11
2023-02-19T06:27:25.670Z,9.09
2023-02-19T06:29:52.187Z,9.09
2023-02-19T06:32:19.113Z,9.10
2023-02-19T06:34:45.704Z,9.08
2023-02-19T06:37:12.284Z,9.06
2023-02-19T06:39:38.834Z,9.04
2023-02-19T06:42:05.548Z,9.04
2023-02-19T06:44:32.079Z,9.04
2023-02-19T06:46:58.778Z,9.02
2023-02-19T06:49:25.852Z,9.03
2023-02-19T06:51:52.444Z,9.03
2023-02-19T06:54:18.949Z,9.04
2023-02-19T06:56:47.069Z,9.03
2023-02-19T06:59:18.756Z,9.04
2023-02-19T07:01:46.195Z,9.02
2023-02-19T07:04:12.771Z,9.01
2023-02-19T07:06:39.334Z,9.01
2023-02-19T07:09:08.319Z,9.01
2023-02-19T07:11:38.059Z,9.01
2023-02-19T07:14:10.592Z,8.98
2023-02-19T07:16:37.489Z,9.00
2023-02-19T07:19:04.035Z,9.00
2023-02-19T07:21:30.901Z,9.00
2023-02-19T07:23:58.143Z,9.00
2023-02-19T07:26:25.139Z,9.00
2023-02-19T07:28:52.462Z,9.02
2023-02-19T07:31:22.592Z,9.03
2023-02-19T07:33:50.186Z,9.02
2023-02-19T07:36:18.204Z,9.03
2023-02-19T07:38:45.429Z,9.04
2023-02-19T07:41:12.333Z,9.03
2023-02-19T07:43:40.106Z,9.07
2023-02-19T07:46:09.964Z,9.06
2023-02-19T07:48:38.663Z,9.10
2023-02-19T07:51:07.667Z,9.10
2023-02-19T07:53:35.362Z,9.13
2023-02-19T07:56:07.782Z,9.16
2023-02-19T07:58:34.837Z,9.17
2023-02-19T08:01:15.093Z,9.17
2023-02-19T08:03:42.421Z,9.19
2023-02-19T08:06:11.117Z,9.21
2023-02-19T08:08:39.052Z,9.16
2023-02-19T08:11:25.590Z,9.18
2023-02-19T08:13:53.587Z,9.19
2023-02-19T08:16:33.062Z,9.19
2023-02-19T08:19:03.726Z,9.22
2023-02-19T08:21:30.315Z,9.25
2023-02-19T08:23:56.962Z,9.26
2023-02-19T08:26:23.558Z,9.27
2023-02-19T08:28:50.069Z,9.27
2023-02-19T08:31:16.685Z,9.30
2023-02-19T08:33:43.352Z,9.31
2023-02-19T08:36:11.168Z,9.29
2023-02-19T08:38:38.316Z,9.30
2023-02-19T08:41:09.744Z,9.28
2023-02-19T08:43:37.118Z,9.31
2023-02-19T08:46:04.944Z,9.33
2023-02-19T08:48:31.575Z,9.36
2023-02-19T08:51:02.061Z,9.38
2023-02-19T08:53:28.624Z,9.39
2023-02-19T08:55:55.117Z,9.39
2023-02-19T08:58:21.971Z,9.38
2023-02-19T09:00:49.033Z,9.40
2023-02-19T09:03:15.601Z,9.43
2023-02-19T09:05:42.154Z,9.43
2023-02-19T09:08:09.313Z,9.45
2023-02-19T09:10:35.874Z,9.49
2023-02-19T09:13:02.738Z,9.54
2023-02-19T09:15:29.932Z,9.63
2023-02-19T09:17:56.748Z,9.70
2023-02-19T09:20:23.377Z,9.74
2023-02-19T09:22:50.040Z,9.76
2023-02-19T09:25:16.660Z,9.82
2023-02-19T09:27:43.362Z,9.84
2023-02-19T09:30:10.385Z,9.84
2023-02-19T09:32:37.068Z,9.87
2023-02-19T09:35:03.663Z,9.88
2023-02-19T09:37:31.244Z,9.87
2023-02-19T09:39:58.620Z,9.86
2023-02-19T09:42:30.271Z,9.84
2023-02-19T09:45:00.185Z,9.84
2023-02-19T09:47:31.360Z,9.82
2023-02-19T09:50:09.965Z,9.80
2023-02-19T09:52:53.524Z,9.78
2023-02-19T09:55:36.966Z,9.80
2023-02-19T09:58:14.381Z,9.76
2023-02-19T10:00:43.301Z,9.70
2023-02-19T10:03:23.448Z,9.69
2023-02-19T10:05:50.014Z,9.70
2023-02-19T10:08:21.285Z,9.72
2023-02-19T10:10:47.956Z,9.67
2023-02-19T10:13:21.248Z,9.59
2023-02-19T10:15:55.785Z,9.59
2023-02-19T10:18:28.183Z,9.55
2023-02-19T10:20:56.772Z,9.49
2023-02-19T10:23:25.552Z,9.48
2023-02-19T10:26:00.151Z,9.46
2023-02-19T10:28:33.566Z,9.43
2023-02-19T10:31:03.226Z,9.40
2023-02-19T10:33:30.485Z,9.41
2023-02-19T10:36:07.560Z,9.39
2023-02-19T10:38:36.524Z,9.37
2023-02-19T10:41:17.537Z,9.38
2023-02-19T10:43:54.255Z,9.39
2023-02-19T10:46:25.946Z,9.42
2023-02-19T10:48:59.380Z,9.43
2023-02-19T10:51:40.073Z,9.47
2023-02-19T10:54:32.608Z,9.48
2023-02-19T10:57:30.230Z,9.49
2023-02-19T11:00:22.508Z,9.53
2023-02-19T11:02:49.149Z,9.52
2023-02-19T11:05:19.987Z,9.52
2023-02-19T11:07:54.624Z,9.50
2023-02-19T11:10:38.510Z,9.51
2023-02-19T11:13:13.210Z,9.51
2023-02-19T11:15:42.645Z,9.53
2023-02-19T11:18:11.903Z,9.54
2023-02-19T11:20:54.360Z,9.48
2023-02-19T11:23:28.733Z,9.44
2023-02-19T11:25:59.182Z,9.46
2023-02-19T11:28:37.921Z,9.46
2023-02-19T11:31:19.871Z,9.48
2023-02-19T11:33:59.870Z,9.51
2023-02-19T11:36:37.578Z,9.54
2023-02-19T11:39:10.100Z,9.57
2023-02-19T11:41:45.678Z,9.60
2023-02-19T11:44:18.161Z,9.64
2023-02-19T11:47:22.866Z,9.64
2023-02-19T11:50:21.164Z,9.65
2023-02-19T11:52:56.670Z,9.68
2023-02-19T11:55:51.033Z,9.72
2023-02-19T11:58:39.716Z,9.69
2023-02-19T12:01:12.547Z,9.69
2023-02-19T12:04:04.417Z,9.55
2023-02-19T12:07:02.148Z,9.41
2023-02-19T12:09:47.426Z,9.30
2023-02-19T12:12:20.879Z,9.22
2023-02-19T12:14:50.295Z,9.19
2023-02-19T12:17:51.090Z,9.11
2023-02-19T12:20:51.988Z,9.03
2023-02-19T12:23:24.445Z,9.01
2023-02-19T12:26:21.978Z,8.94
2023-02-19T12:29:14.739Z,8.91
2023-02-19T12:31:41.264Z,8.88
2023-02-19T12:34:26.496Z,8.86
2023-02-19T13:03:49.880Z,8.61
2023-02-19T13:06:27.674Z,8.57
2023-02-19T13:09:07.372Z,8.60
2023-02-19T13:11:50.581Z,8.63
2023-02-19T13:14:40.346Z,8.62
2023-02-19T13:17:23.305Z,8.62
2023-02-19T13:20:09.325Z,8.60
2023-02-19T13:23:04.732Z,8.55
2023-02-19T13:26:03.776Z,8.53
2023-02-19T13:28:48.949Z,8.52
2023-02-19T13:31:39.890Z,8.47
2023-02-19T13:34:25.118Z,8.46
2023-02-19T13:36:54.292Z,8.44
2023-02-19T13:39:23.227Z,8.45
2023-02-19T13:42:01.710Z,8.45
2023-02-19T13:44:31.565Z,8.45
2023-02-19T13:46:58.834Z,8.46
2023-02-19T13:49:25.377Z,8.46
2023-02-19T13:51:53.150Z,8.44
2023-02-19T13:54:35.953Z,8.46
2023-02-19T13:57:24.063Z,8.50
2023-02-19T13:59:53.353Z,8.51
2023-02-19T14:02:22.968Z,8.53
2023-02-19T14:04:56.007Z,8.54
2023-02-19T14:07:31.358Z,8.57
2023-02-19T14:09:58.759Z,8.59
2023-02-19T14:12:36.364Z,8.59
2023-02-19T14:15:24.923Z,8.60
2023-02-19T14:17:51.614Z,8.60
2023-02-19T14:20:18.137Z,8.66
2023-02-19T14:22:52.500Z,8.68
2023-02-19T14:25:30.429Z,8.70
2023-02-19T14:28:19.057Z,8.75
2023-02-19T14:31:02.853Z,8.75
2023-02-19T14:33:34.022Z,8.79
2023-02-19T14:36:06.755Z,8.75
2023-02-19T14:38:42.122Z,8.78
2023-02-19T14:41:14.706Z,8.83
2023-02-19T14:43:43.516Z,8.78
2023-02-19T14:46:25.102Z,8.78
2023-02-19T14:48:52.085Z,8.73
2023-02-19T14:51:37.669Z,8.72
2023-02-19T14:54:19.651Z,8.74
2023-02-19T14:56:52.414Z,8.69
2023-02-19T14:59:28.181Z,8.70
2023-02-19T15:01:58.937Z,8.72
2023-02-19T15:04:31.240Z,8.72
2023-02-19T15:07:02.382Z,8.68
2023-02-19T15:09:33.270Z,8.64
2023-02-19T15:12:02.717Z,8.66
2023-02-19T15:14:30.756Z,8.67
2023-02-19T15:17:02.188Z,8.69
2023-02-19T15:19:35.043Z,8.66
2023-02-19T15:22:05.276Z,8.63
2023-02-19T15:24:32.117Z,8.66
2023-02-19T15:26:58.836Z,8.62
2023-02-19T15:29:28.373Z,8.61
2023-02-19T15:31:58.317Z,8.61
2023-02-19T15:34:30.668Z,8.61
2023-02-19T15:37:05.730Z,8.61
2023-02-19T15:39:39.041Z,8.56
2023-02-19T15:42:08.872Z,8.57
2023-02-19T15:44:48.902Z,8.50
2023-02-19T15:47:21.908Z,8.46
2023-02-19T15:50:15.282Z,8.47
2023-02-19T15:52:54.449Z,8.37
2023-02-19T15:55:46.737Z,8.30
2023-02-19T15:58:43.788Z,8.29
2023-02-19T16:01:15.937Z,8.30
2023-02-19T16:03:43.310Z,8.30
2023-02-19T16:06:16.597Z,8.27
2023-02-19T16:09:05.643Z,8.24
2023-02-19T16:11:36.467Z,8.22
2023-02-19T16:14:33.365Z,8.21
2023-02-19T16:17:16.692Z,8.17
2023-02-19T16:19:43.473Z,8.15
2023-02-19T16:22:13.085Z,8.10
2023-02-19T16:24:46.015Z,8.09
2023-02-19T16:27:36.421Z,8.10
2023-02-19T16:30:31.499Z,8.04
2023-02-19T16:33:19.607Z,8.01
2023-02-19T16:35:48.048Z,7.99
2023-02-19T16:38:16.926Z,7.99
2023-02-19T16:40:50.774Z,7.96
2023-02-19T16:43:31.304Z,7.93
2023-02-19T16:46:00.115Z,7.85
2023-02-19T16:48:27.030Z,7.86
2023-02-19T16:50:53.780Z,7.85
2023-02-19T16:53:25.186Z,7.81
2023-02-19T16:55:52.339Z,7.79
2023-02-19T16:58:18.958Z,7.78
2023-02-19T17:00:45.523Z,7.76
2023-02-19T17:03:17.708Z,7.71
2023-02-19T17:05:45.162Z,7.65
2023-02-19T17:08:37.849Z,7.65
2023-02-19T17:11:10.522Z,7.61
2023-02-19T17:13:37.486Z,7.57
2023-02-19T17:16:04.271Z,7.56
2023-02-19T17:18:30.915Z,7.56
2023-02-19T17:21:15.273Z,7.56
2023-02-19T17:23:41.965Z,7.52
2023-02-19T17:26:29.324Z,7.54
2023-02-19T17:28:56.970Z,7.55
2023-02-19T17:31:23.735Z,7.54
2023-02-19T17:33:51.030Z,7.52
2023-02-19T17:36:20.749Z,7.50
2023-02-19T17:38:47.377Z,7.49
2023-02-19T17:41:13.992Z,7.48
2023-02-19T17:43:40.816Z,7.45
2023-02-19T17:46:09.657Z,7.47
2023-02-19T17:48:36.235Z,7.45
2023-02-19T17:51:02.853Z,7.43
2023-02-19T17:53:29.347Z,7.45
2023-02-19T17:55:55.902Z,7.43
2023-02-19T17:58:22.492Z,7.43
2023-02-19T18:00:49.058Z,7.41
2023-02-19T18:03:15.613Z,7.38
2023-02-19T18:05:42.261Z,7.39
2023-02-19T18:08:08.868Z,7.40
2023-02-19T18:10:36.105Z,7.37
2023-02-19T18:13:02.783Z,7.34
2023-02-19T18:15:29.288Z,7.37
2023-02-19T18:17:57.025Z,7.33
2023-02-19T18:20:26.366Z,7.33
2023-02-19T18:22:54.019Z,7.31
2023-02-19T18:25:21.468Z,7.31
2023-02-19T18:27:48.772Z,7.29
2023-02-19T18:30:18.833Z,7.24
2023-02-19T18:32:49.506Z,7.20
2023-02-19T18:35:21.247Z,7.19
2023-02-19T18:37:54.126Z,7.11
2023-02-19T18:40:22.523Z,7.08
2023-02-19T18:42:49.090Z,7.02
2023-02-19T18:45:16.856Z,6.96
2023-02-19T18:47:46.307Z,6.95
2023-02-19T18:50:13.586Z,6.90
2023-02-19T18:52:40.145Z,6.87
2023-02-19T18:55:07.207Z,6.84
2023-02-19T18:57:33.700Z,6.77
2023-02-19T19:00:00.289Z,6.73
2023-02-19T19:02:29.734Z,6.69
2023-02-19T19:04:58.246Z,6.66
2023-02-19T19:07:24.756Z,6.64
2023-02-19T19:09:51.381Z,6.56
2023-02-19T19:12:18.057Z,6.48
2023-02-19T19:14:45.173Z,6.44
2023-02-19T19:17:11.825Z,6.39
2023-02-19T19:19:38.385Z,6.35
2023-02-19T19:22:04.903Z,6.27
2023-02-19T19:24:31.493Z,6.27
2023-02-19T19:26:58.197Z,6.22
2023-02-19T19:29:24.887Z,6.21
2023-02-19T19:31:51.566Z,6.19
2023-02-19T19:34:18.600Z,6.14
2023-02-19T19:36:46.032Z,6.14
2023-02-19T19:39:13.080Z,6.09
2023-02-19T19:41:39.696Z,6.05
2023-02-19T19:44:08.646Z,6.00
2023-02-19T19:46:35.843Z,5.97
2023-02-19T19:49:02.381Z,5.94
2023-02-19T19:51:33.602Z,5.90
2023-02-19T19:54:01.971Z,5.86
2023-02-19T19:56:28.525Z,5.84
2023-02-19T19:58:55.072Z,5.80
2023-02-19T20:01:23.037Z,5.79
2023-02-19T20:03:51.068Z,5.76
2023-02-19T20:06:26.686Z,5.74
2023-02-19T20:08:54.696Z,5.70
2023-02-19T20:11:21.218Z,5.68
2023-02-19T20:13:47.706Z,5.66
2023-02-19T20:16:14.689Z,5.64
2023-02-19T20:18:42.062Z,5.63
2023-02-19T20:21:10.423Z,5.61
2023-02-19T20:23:40.268Z,5.60
2023-02-19T20:26:06.984Z,5.56
2023-02-19T20:28:33.549Z,5.54
2023-02-19T20:31:00.128Z,5.54
2023-02-19T20:33:26.706Z,5.53
2023-02-19T20:35:53.433Z,5.49
2023-02-19T20:38:20.419Z,5.45
2023-02-19T20:40:47.025Z,5.45
2023-02-19T20:43:13.541Z,5.44
2023-02-19T20:45:40.982Z,5.42
2023-02-19T20:48:07.585Z,5.42
2023-02-19T20:50:34.126Z,5.39
2023-02-19T20:53:01.131Z,5.38
2023-02-19T20:55:28.676Z,5.34
2023-02-19T20:57:55.323Z,5.33
2023-02-19T21:00:23.222Z,5.30
2023-02-19T21:02:50.006Z,5.29
2023-02-19T21:05:17.538Z,5.26
2023-02-19T21:07:44.154Z,5.24
2023-02-19T21:10:10.757Z,5.24
2023-02-19T21:12:37.358Z,5.20
2023-02-19T21:15:05.454Z,5.19
2023-02-19T21:17:32.035Z,5.21
2023-02-19T21:19:58.882Z,5.19
2023-02-19T21:22:25.451Z,5.18
2023-02-19T21:24:53.081Z,5.13
2023-02-19T21:27:20.624Z,5.15
2023-02-19T21:29:47.214Z,5.13
2023-02-19T21:32:13.905Z,5.12
2023-02-19T21:34:40.582Z,5.13
2023-02-19T21:37:07.113Z,5.13
2023-02-19T21:39:34.638Z,5.13
2023-02-19T21:42:01.611Z,5.13
2023-02-19T21:44:28.423Z,5.12
2023-02-19T21:46:54.942Z,5.12
2023-02-19T21:49:21.877Z,5.14
2023-02-19T21:51:49.563Z,5.13
2023-02-19T21:54:24.999Z,5.12
2023-02-19T21:56:53.593Z,5.10
2023-02-19T21:59:21.825Z,5.11
2023-02-19T22:01:50.395Z,5.12
2023-02-19T22:04:20.238Z,5.10
2023-02-19T22:06:47.404Z,5.12
2023-02-19T22:09:15.247Z,5.13
2023-02-19T22:11:41.799Z,5.10
2023-02-19T22:14:08.758Z,5.12
2023-02-19T22:16:35.395Z,5.13
2023-02-19T22:19:02.418Z,5.13
2023-02-19T22:21:33.928Z,5.12
2023-02-19T22:24:02.594Z,5.17
2023-02-19T22:26:30.865Z,5.13
2023-02-19T22:28:59.496Z,5.14
2023-02-19T22:31:27.985Z,5.16
2023-02-19T22:33:57.115Z,5.17
2023-02-19T22:36:33.183Z,5.18
2023-02-19T22:39:00.692Z,5.18
2023-02-19T22:41:27.344Z,5.20
2023-02-19T22:43:55.481Z,5.20
2023-02-19T22:46:25.097Z,5.20
2023-02-19T22:48:52.015Z,5.19
2023-02-19T22:51:22.259Z,5.19
2023-02-19T22:53:52.205Z,5.19
2023-02-19T22:56:20.898Z,5.18
2023-02-19T22:58:47.542Z,5.20
2023-02-19T23:01:14.792Z,5.19
2023-02-19T23:03:52.900Z,5.21
2023-02-19T23:06:31.570Z,5.23
2023-02-19T23:09:03.359Z,5.26
2023-02-19T23:11:33.781Z,5.26
2023-02-19T23:14:00.316Z,5.28
2023-02-19T23:16:27.545Z,5.29
2023-02-19T23:18:54.537Z,5.29
2023-02-19T23:21:22.685Z,5.32
2023-02-19T23:23:49.600Z,5.33
2023-02-19T23:26:17.055Z,5.34
2023-02-19T23:28:45.057Z,5.37
2023-02-19T23:31:12.859Z,5.37
2023-02-19T23:33:40.328Z,5.39
2023-02-19T23:36:08.405Z,5.40
2023-02-19T23:38:35.001Z,5.41
2023-02-19T23:41:01.803Z,5.44
2023-02-19T23:43:28.572Z,5.44
2023-02-19T23:45:55.231Z,5.47
2023-02-19T23:48:21.756Z,5.49
2023-02-19T23:50:48.272Z,5.53
2023-02-19T23:53:14.930Z,5.54
2023-02-19T23:55:41.474Z,5.56
2023-02-19T23:58:08.134Z,5.57
